20°C Temp
17°C Dewpoint
83% Humidity
Temperature
10 KM/H
6 MPH
5 KTS
10°
Due North

Wind Speed
Mostly Cloudy
Conditions
Pressure 1021.92 (hPa) - 30.18 (in)
Visibility 6.2 (mi) - 10.0 (km)

Current Conditions
LIME
Location 20(km)
Metar :LIME 220720Z 01005KT 9999 BKN110 20/17 Q1022 NOSIG
Thu 22nd August 09:20 am

Airport
  Metar Aviation API Data Provided by https://www.checkwx.com/ PHP scripts by weather34.com ©2019